Time;durP1;ratioP1;P1;durP2;ratioP2;P2;SDS_P1;SDS_P2;PMS_P1;PMS_P2;Temp;Humidity;BMP_temperature;BMP_pressure;BME280_temperature;BME280_humidity;BME280_pressure;Samples;Min_cycle;Max_cycle;Signal;HPM_P1;HPM_P2
2022/05/23 00:07:48;;;;;;;;;;;19.20;59.70;;;;;;20805252;28;19913;-81
2022/05/23 00:17:48;;;;;;;;;;;19.20;59.70;;;;;;20802693;28;19916;-82
2022/05/23 00:27:50;;;;;;;;;;;19.10;59.70;;;;;;20802859;28;19909;-81
2022/05/23 00:37:51;;;;;;;;;;;19.20;59.70;;;;;;20799607;28;19944;-82
2022/05/23 00:47:53;;;;;;;;;;;19.20;59.70;;;;;;20783914;28;19909;-82
2022/05/23 00:58:03;;;;;;;;;;;19.10;59.70;;;;;;20785163;28;20416;-82
2022/05/23 01:08:04;;;;;;;;;;;19.10;59.70;;;;;;20814204;28;19909;-81
2022/05/23 01:18:05;;;;;;;;;;;19.10;59.70;;;;;;20780881;28;19948;-81
2022/05/23 01:28:05;;;;;;;;;;;19.10;59.70;;;;;;20780709;28;19931;-81
2022/05/23 01:38:06;;;;;;;;;;;19.00;59.70;;;;;;20795116;28;20164;-81
2022/05/23 01:48:21;;;;;;;;;;;19.00;59.70;;;;;;20797034;28;19943;-81
2022/05/23 02:08:44;;;;;;;;;;;19.00;59.70;;;;;;20796247;28;19962;-81
2022/05/23 02:18:45;;;;;;;;;;;19.00;59.70;;;;;;20793296;28;20373;-81
2022/05/23 02:28:47;;;;;;;;;;;19.00;59.70;;;;;;20776782;28;19920;-82
2022/05/23 02:38:59;;;;;;;;;;;18.90;59.60;;;;;;20794861;28;20262;-81
2022/05/23 02:49:00;;;;;;;;;;;18.90;59.60;;;;;;20808474;28;19909;-81
2022/05/23 02:59:01;;;;;;;;;;;18.90;59.60;;;;;;20793313;28;19909;-80
2022/05/23 03:09:02;;;;;;;;;;;18.90;59.60;;;;;;20791074;28;19916;-80
2022/05/23 03:19:04;;;;;;;;;;;18.90;59.60;;;;;;20786117;28;19939;-80
2022/05/23 03:29:05;;;;;;;;;;;18.90;59.60;;;;;;20788388;28;20331;-80
2022/05/23 03:39:06;;;;;;;;;;;18.90;59.60;;;;;;20804437;28;19916;-81
2022/05/23 03:49:07;;;;;;;;;;;18.90;59.60;;;;;;20787536;28;19927;-82
2022/05/23 03:59:08;;;;;;;;;;;19.00;59.70;;;;;;20786955;28;20408;-81
2022/05/23 04:09:18;;;;;;;;;;;18.80;59.60;;;;;;20803230;28;20357;-82
2022/05/23 04:19:24;;;;;;;;;;;18.80;59.60;;;;;;20818220;28;19913;-81
2022/05/23 04:29:43;;;;;;;;;;;18.80;59.60;;;;;;20819626;28;19917;-81
2022/05/23 04:39:54;;;;;;;;;;;18.80;59.60;;;;;;20801918;28;19974;-82
2022/05/23 04:49:56;;;;;;;;;;;18.80;59.70;;;;;;20798674;28;19956;-82
2022/05/23 05:00:18;;;;;;;;;;;18.80;59.70;;;;;;20773882;28;19955;-80
2022/05/23 05:10:25;;;;;;;;;;;18.80;59.70;;;;;;20808347;28;19916;-80
2022/05/23 05:20:26;;;;;;;;;;;18.80;59.70;;;;;;20770976;28;19928;-83
2022/05/23 05:30:33;;;;;;;;;;;18.80;59.70;;;;;;20809855;28;20015;-74
2022/05/23 05:40:34;;;;;;;;;;;18.80;59.60;;;;;;20806277;28;19909;-79
2022/05/23 05:50:35;;;;;;;;;;;18.80;59.50;;;;;;20824909;28;20315;-79
2022/05/23 06:00:44;;;;;;;;;;;18.90;59.20;;;;;;20792753;28;19952;-77
2022/05/23 06:21:19;;;;;;;;;;;18.80;58.80;;;;;;20809308;28;19924;-79
2022/05/23 06:31:20;;;;;;;;;;;18.90;58.80;;;;;;20789680;28;20430;-81
2022/05/23 06:41:21;;;;;;;;;;;18.90;59.30;;;;;;20793238;28;19909;-84
2022/05/23 06:51:39;;;;;;;;;;;18.90;58.70;;;;;;20789820;28;19947;-85
2022/05/23 07:01:39;;;;;;;;;;;19.00;58.70;;;;;;20811062;28;20007;-84
2022/05/23 07:22:22;;;;;;;;;;;19.00;59.20;;;;;;21264992;22;20346;-84
2022/05/23 07:32:23;;;;;;;;;;;18.90;58.50;;;;;;20906241;28;19919;-88
2022/05/23 07:42:24;;;;;;;;;;;19.00;58.60;;;;;;20890367;28;20634;-85
2022/05/23 07:52:25;;;;;;;;;;;19.00;58.50;;;;;;20887615;28;19920;-75
2022/05/23 08:02:26;;;;;;;;;;;19.00;58.40;;;;;;20893607;28;19917;-73
2022/05/23 08:12:36;;;;;;;;;;;19.00;58.40;;;;;;20867403;28;20367;-77
2022/05/23 08:22:40;;;;;;;;;;;19.00;58.40;;;;;;20888478;28;20255;-79
2022/05/23 08:32:56;;;;;;;;;;;19.00;58.40;;;;;;20898957;28;20256;-77
2022/05/23 08:42:57;;;;;;;;;;;19.00;58.40;;;;;;20877092;28;19919;-78
2022/05/23 08:53:12;;;;;;;;;;;19.00;58.40;;;;;;20893363;28;20390;-77
2022/05/23 09:03:30;;;;;;;;;;;19.10;58.40;;;;;;20862338;28;19927;-77
2022/05/23 09:13:32;;;;;;;;;;;19.00;58.40;;;;;;20873603;28;20407;-77
2022/05/23 09:23:33;;;;;;;;;;;19.10;58.40;;;;;;20860689;28;19962;-75
2022/05/23 09:33:33;;;;;;;;;;;19.10;58.40;;;;;;20879933;28;20380;-78
2022/05/23 09:53:53;;;;;;;;;;;19.10;58.40;;;;;;20876283;28;19913;-78
2022/05/23 10:03:54;;;;;;;;;;;19.10;58.40;;;;;;20924395;28;19912;-77
2022/05/23 10:13:56;;;;;;;;;;;19.10;58.50;;;;;;20888377;28;19934;-77
2022/05/23 10:23:57;;;;;;;;;;;19.10;58.40;;;;;;20869872;28;19920;-77
2022/05/23 10:33:58;;;;;;;;;;;19.20;58.40;;;;;;20903093;28;19912;-71
2022/05/23 10:44:02;;;;;;;;;;;19.20;58.40;;;;;;20881635;28;19924;-73
2022/05/23 10:54:05;;;;;;;;;;;19.20;58.40;;;;;;20899938;28;20241;-76
2022/05/23 11:04:06;;;;;;;;;;;19.20;58.40;;;;;;20900424;28;19940;-77
2022/05/23 11:14:29;;;;;;;;;;;19.20;58.40;;;;;;20900537;28;19913;-76
2022/05/23 11:24:34;;;;;;;;;;;19.30;58.40;;;;;;20855393;28;20256;-77
2022/05/23 11:34:36;;;;;;;;;;;19.30;58.40;;;;;;20885254;28;20007;-76
2022/05/23 11:44:42;;;;;;;;;;;19.30;58.50;;;;;;20913916;28;19912;-77
2022/05/23 11:54:43;;;;;;;;;;;19.30;58.50;;;;;;20909167;28;19960;-73
2022/05/23 12:04:44;;;;;;;;;;;19.40;58.50;;;;;;20896783;28;19935;-74
2022/05/23 12:14:44;;;;;;;;;;;19.40;58.50;;;;;;20911290;28;19999;-74
2022/05/23 12:25:00;;;;;;;;;;;19.40;58.50;;;;;;20893968;28;19916;-75
2022/05/23 12:35:00;;;;;;;;;;;19.50;58.40;;;;;;20911853;28;19913;-73
2022/05/23 12:45:04;;;;;;;;;;;19.50;58.40;;;;;;20892597;28;19944;-73
2022/05/23 12:55:17;;;;;;;;;;;19.50;58.30;;;;;;20925042;28;20279;-77
2022/05/23 13:05:19;;;;;;;;;;;19.60;58.30;;;;;;20876040;28;19948;-76
2022/05/23 13:15:24;;;;;;;;;;;19.60;58.30;;;;;;20879671;28;19928;-76
2022/05/23 13:25:28;;;;;;;;;;;19.60;58.30;;;;;;20860694;28;19932;-76
2022/05/23 13:35:30;;;;;;;;;;;19.70;58.20;;;;;;20869067;28;20671;-76
2022/05/23 13:45:31;;;;;;;;;;;19.80;58.30;;;;;;20885129;28;20027;-77
2022/05/23 13:55:34;;;;;;;;;;;19.80;58.20;;;;;;20854436;28;20004;-76
2022/05/23 14:05:35;;;;;;;;;;;19.90;58.10;;;;;;20886284;28;19920;-80
2022/05/23 14:15:36;;;;;;;;;;;19.90;58.00;;;;;;20870275;28;19916;-83
2022/05/23 14:25:43;;;;;;;;;;;20.00;57.80;;;;;;20869884;28;19927;-81
2022/05/23 14:35:57;;;;;;;;;;;20.10;57.60;;;;;;20869153;28;19923;-77
2022/05/23 14:45:59;;;;;;;;;;;20.20;57.50;;;;;;20873946;28;19971;-85
2022/05/23 14:56:04;;;;;;;;;;;20.30;57.60;;;;;;20873971;28;19912;-84
2022/05/23 15:06:04;;;;;;;;;;;20.40;57.60;;;;;;20873601;28;20281;-83
2022/05/23 15:16:05;;;;;;;;;;;20.40;57.60;;;;;;20904020;28;20012;-84
2022/05/23 15:26:06;;;;;;;;;;;20.50;57.60;;;;;;20776261;28;19932;-77
2022/05/23 15:36:06;;;;;;;;;;;20.60;57.60;;;;;;20818954;28;20012;-84
2022/05/23 15:46:07;;;;;;;;;;;20.60;57.60;;;;;;20806367;28;20272;-82
2022/05/23 15:56:08;;;;;;;;;;;20.80;57.60;;;;;;20806789;28;19917;-83
2022/05/23 16:06:10;;;;;;;;;;;20.70;57.70;;;;;;20819827;28;20261;-83
2022/05/23 16:16:11;;;;;;;;;;;20.60;57.80;;;;;;20831631;28;19916;-79
2022/05/23 16:26:12;;;;;;;;;;;20.70;58.00;;;;;;20894384;28;19909;-77
2022/05/23 16:46:31;;;;;;;;;;;20.60;58.20;;;;;;20878981;28;19913;-74
2022/05/23 16:56:32;;;;;;;;;;;20.50;58.40;;;;;;20892701;28;19912;-89
2022/05/23 17:06:34;;;;;;;;;;;20.40;58.50;;;;;;20865393;28;19912;-79
2022/05/23 17:16:35;;;;;;;;;;;20.40;58.80;;;;;;20893123;28;19931;-79
2022/05/23 17:26:35;;;;;;;;;;;20.30;58.70;;;;;;20876191;28;19916;-77
2022/05/23 17:36:36;;;;;;;;;;;20.30;58.70;;;;;;20858593;28;19912;-81
2022/05/23 17:46:36;;;;;;;;;;;20.30;58.90;;;;;;20883787;28;20353;-76
2022/05/23 17:56:37;;;;;;;;;;;20.20;59.00;;;;;;20886363;28;19936;-76
2022/05/23 18:06:37;;;;;;;;;;;20.20;59.10;;;;;;20878299;28;19917;-77
2022/05/23 18:26:57;;;;;;;;;;;20.10;59.20;;;;;;20869305;28;19923;-76
2022/05/23 18:36:58;;;;;;;;;;;20.10;59.40;;;;;;20862747;28;19913;-76
2022/05/23 18:46:58;;;;;;;;;;;20.10;59.40;;;;;;20883331;28;20007;-77
2022/05/23 18:57:00;;;;;;;;;;;20.10;59.50;;;;;;20882149;28;19913;-77
2022/05/23 19:07:01;;;;;;;;;;;20.00;59.50;;;;;;20896613;28;19913;-77
2022/05/23 19:17:02;;;;;;;;;;;20.10;59.60;;;;;;20890569;28;20388;-77
2022/05/23 19:27:02;;;;;;;;;;;20.00;59.60;;;;;;20880391;28;20213;-78
2022/05/23 19:37:03;;;;;;;;;;;20.00;59.60;;;;;;20894722;28;19917;-77
2022/05/23 19:47:06;;;;;;;;;;;20.00;59.70;;;;;;20883023;28;20034;-78
2022/05/23 19:57:10;;;;;;;;;;;20.00;60.40;;;;;;20890313;28;19913;-79
2022/05/23 20:07:11;;;;;;;;;;;20.00;59.80;;;;;;20893488;28;19979;-78
2022/05/23 20:17:11;;;;;;;;;;;20.00;59.90;;;;;;20875636;28;20387;-79
2022/05/23 20:27:12;;;;;;;;;;;19.90;59.90;;;;;;20874034;28;19939;-78
2022/05/23 20:37:12;;;;;;;;;;;19.90;59.90;;;;;;20890229;28;19912;-79
2022/05/23 20:47:13;;;;;;;;;;;19.90;60.00;;;;;;20877561;28;19920;-79
2022/05/23 20:57:14;;;;;;;;;;;19.90;60.00;;;;;;20889670;28;20396;-79
2022/05/23 21:07:15;;;;;;;;;;;19.90;60.10;;;;;;20871112;28;19920;-79
2022/05/23 21:17:16;;;;;;;;;;;19.90;60.10;;;;;;20871497;28;20028;-79
2022/05/23 21:27:16;;;;;;;;;;;19.90;60.20;;;;;;20869709;28;20319;-79
2022/05/23 21:37:18;;;;;;;;;;;19.90;60.20;;;;;;20868481;28;20011;-79
2022/05/23 21:47:18;;;;;;;;;;;19.90;60.20;;;;;;20871565;28;19990;-79
2022/05/23 21:57:19;;;;;;;;;;;19.90;60.30;;;;;;20887508;28;19913;-79
2022/05/23 22:07:21;;;;;;;;;;;19.90;60.40;;;;;;20853902;28;19916;-79
2022/05/23 22:17:21;;;;;;;;;;;19.80;60.30;;;;;;20871076;28;20003;-80
2022/05/23 22:27:22;;;;;;;;;;;19.80;60.40;;;;;;20886215;28;19915;-79
2022/05/23 22:37:23;;;;;;;;;;;19.80;60.40;;;;;;20885639;28;19999;-79
2022/05/23 22:47:24;;;;;;;;;;;19.80;60.40;;;;;;20885047;28;19919;-79
2022/05/23 22:57:26;;;;;;;;;;;19.80;60.50;;;;;;20868403;28;19925;-79
2022/05/23 23:07:26;;;;;;;;;;;19.80;60.60;;;;;;20884616;28;19966;-79
2022/05/23 23:17:29;;;;;;;;;;;19.70;60.60;;;;;;20868089;28;20391;-79
2022/05/23 23:27:30;;;;;;;;;;;19.80;60.80;;;;;;20883612;28;19913;-79
2022/05/23 23:47:50;;;;;;;;;;;19.70;60.90;;;;;;20900594;28;20311;-79
2022/05/23 23:57:51;;;;;;;;;;;19.80;61.10;;;;;;20881312;28;19924;-79
